sensor_id;sensor_type;location;lat;lon;timestamp;pressure;altitude;pressure_sealevel;temperature;humidity
70127;BME280;57491;42.694;23.314;2022-09-23T00:00:59;95320.84;;;11.76;60.28
70127;BME280;57491;42.694;23.314;2022-09-23T00:03:30;95319.25;;;11.75;59.83
70127;BME280;57491;42.694;23.314;2022-09-23T00:05:58;95302.78;;;11.59;60.29
70127;BME280;57491;42.694;23.314;2022-09-23T00:08:26;95315.31;;;11.79;61.00
70127;BME280;57491;42.694;23.314;2022-09-23T00:10:53;95292.47;;;11.66;60.07
70127;BME280;57491;42.694;23.314;2022-09-23T00:13:21;95314.06;;;11.75;59.72
70127;BME280;57491;42.694;23.314;2022-09-23T00:15:49;95302.19;;;11.72;61.02
70127;BME280;57491;42.694;23.314;2022-09-23T00:18:16;95285.09;;;11.55;60.80
70127;BME280;57491;42.694;23.314;2022-09-23T00:20:47;95284.28;;;11.54;60.31
70127;BME280;57491;42.694;23.314;2022-09-23T00:23:14;95298.75;;;11.57;61.23
70127;BME280;57491;42.694;23.314;2022-09-23T00:25:41;95295.94;;;11.58;60.85
70127;BME280;57491;42.694;23.314;2022-09-23T00:28:08;95294.25;;;11.51;60.17
70127;BME280;57491;42.694;23.314;2022-09-23T00:30:36;95296.03;;;11.50;60.80
70127;BME280;57491;42.694;23.314;2022-09-23T00:33:06;95293.88;;;11.54;60.63
70127;BME280;57491;42.694;23.314;2022-09-23T00:35:33;95294.31;;;11.57;61.20
70127;BME280;57491;42.694;23.314;2022-09-23T00:38:02;95298.75;;;11.57;61.25
70127;BME280;57491;42.694;23.314;2022-09-23T00:40:29;95296.94;;;11.57;60.95
70127;BME280;57491;42.694;23.314;2022-09-23T00:42:57;95302.34;;;11.56;60.48
70127;BME280;57491;42.694;23.314;2022-09-23T00:45:24;95302.34;;;11.56;61.79
70127;BME280;57491;42.694;23.314;2022-09-23T00:47:52;95289.94;;;11.43;60.20
70127;BME280;57491;42.694;23.314;2022-09-23T00:50:23;95287.16;;;11.45;60.31
70127;BME280;57491;42.694;23.314;2022-09-23T00:52:56;95287.06;;;11.38;60.75
70127;BME280;57491;42.694;23.314;2022-09-23T00:55:29;95258.84;;;11.12;60.88
70127;BME280;57491;42.694;23.314;2022-09-23T00:58:00;95295.00;;;11.22;61.32
70127;BME280;57491;42.694;23.314;2022-09-23T01:00:28;95294.22;;;11.22;61.95
70127;BME280;57491;42.694;23.314;2022-09-23T01:02:55;95307.75;;;11.17;61.38
70127;BME280;57491;42.694;23.314;2022-09-23T01:05:22;95301.94;;;11.15;61.96
70127;BME280;57491;42.694;23.314;2022-09-23T01:07:50;95299.16;;;11.16;61.42
70127;BME280;57491;42.694;23.314;2022-09-23T01:10:18;95305.66;;;11.12;61.59
70127;BME280;57491;42.694;23.314;2022-09-23T01:13:00;95308.91;;;11.14;61.81
70127;BME280;57491;42.694;23.314;2022-09-23T01:15:38;95307.66;;;11.10;62.34
70127;BME280;57491;42.694;23.314;2022-09-23T01:18:14;95304.91;;;11.12;62.26
70127;BME280;57491;42.694;23.314;2022-09-23T01:21:04;95307.66;;;11.10;61.96
70127;BME280;57491;42.694;23.314;2022-09-23T01:30:04;95307.91;;;11.01;62.58
70127;BME280;57491;42.694;23.314;2022-09-23T01:32:54;95307.63;;;10.96;62.63
70127;BME280;57491;42.694;23.314;2022-09-23T01:35:26;95307.22;;;10.84;63.16
70127;BME280;57491;42.694;23.314;2022-09-23T01:38:02;95311.50;;;10.77;63.05
70127;BME280;57491;42.694;23.314;2022-09-23T01:40:37;95315.09;;;10.76;63.48
70127;BME280;57491;42.694;23.314;2022-09-23T01:43:15;95307.19;;;10.69;63.57
70127;BME280;57491;42.694;23.314;2022-09-23T01:45:46;95311.91;;;10.66;63.78
70127;BME280;57491;42.694;23.314;2022-09-23T01:48:19;95311.09;;;10.65;64.32
70127;BME280;57491;42.694;23.314;2022-09-23T01:50:51;95319.72;;;10.66;63.97
70127;BME280;57491;42.694;23.314;2022-09-23T01:53:29;95314.84;;;10.63;64.16
70127;BME280;57491;42.694;23.314;2022-09-23T01:56:02;95311.97;;;10.58;64.44
70127;BME280;57491;42.694;23.314;2022-09-23T01:58:36;95327.22;;;10.61;64.38
70127;BME280;57491;42.694;23.314;2022-09-23T02:01:08;95308.38;;;10.59;65.73
70127;BME280;57491;42.694;23.314;2022-09-23T02:03:44;95313.88;;;10.64;64.53
70127;BME280;57491;42.694;23.314;2022-09-23T02:06:15;95312.53;;;10.68;65.71
70127;BME280;57491;42.694;23.314;2022-09-23T02:08:51;95309.78;;;10.69;65.03
70127;BME280;57491;42.694;23.314;2022-09-23T02:11:21;95294.00;;;10.48;65.34
70127;BME280;57491;42.694;23.314;2022-09-23T02:13:52;95303.53;;;10.56;66.56
70127;BME280;57491;42.694;23.314;2022-09-23T02:16:25;95314.31;;;10.67;65.55
70127;BME280;57491;42.694;23.314;2022-09-23T02:18:57;95314.47;;;10.74;64.76
70127;BME280;57491;42.694;23.314;2022-09-23T02:21:32;95307.00;;;10.71;65.29
70127;BME280;57491;42.694;23.314;2022-09-23T02:24:04;95301.81;;;10.71;64.69
70127;BME280;57491;42.694;23.314;2022-09-23T02:26:37;95300.53;;;10.67;64.96
70127;BME280;57491;42.694;23.314;2022-09-23T02:29:18;95313.69;;;10.88;65.04
70127;BME280;57491;42.694;23.314;2022-09-23T02:31:53;95309.19;;;10.82;64.33
70127;BME280;57491;42.694;23.314;2022-09-23T02:34:31;95313.19;;;10.93;64.72
70127;BME280;57491;42.694;23.314;2022-09-23T02:37:07;95293.13;;;10.79;62.96
70127;BME280;57491;42.694;23.314;2022-09-23T02:39:40;95304.41;;;10.71;63.30
70127;BME280;57491;42.694;23.314;2022-09-23T02:42:13;95279.78;;;10.59;64.14
70127;BME280;57491;42.694;23.314;2022-09-23T02:44:42;95312.59;;;10.60;63.09
70127;BME280;57491;42.694;23.314;2022-09-23T02:47:09;95321.72;;;10.56;64.05
70127;BME280;57491;42.694;23.314;2022-09-23T02:49:38;95328.81;;;10.39;64.20
70127;BME280;57491;42.694;23.314;2022-09-23T02:52:06;95323.50;;;10.33;64.59
70127;BME280;57491;42.694;23.314;2022-09-23T02:54:34;95327.41;;;10.28;65.10
70127;BME280;57491;42.694;23.314;2022-09-23T02:57:04;95331.94;;;10.35;63.62
70127;BME280;57491;42.694;23.314;2022-09-23T02:59:33;95326.56;;;10.36;65.20
70127;BME280;57491;42.694;23.314;2022-09-23T03:02:13;95325.72;;;10.44;64.46
70127;BME280;57491;42.694;23.314;2022-09-23T03:04:51;95325.81;;;10.50;64.75
70127;BME280;57491;42.694;23.314;2022-09-23T03:07:23;95324.03;;;10.51;64.93
70127;BME280;57491;42.694;23.314;2022-09-23T03:10:03;95323.75;;;10.46;64.35
70127;BME280;57491;42.694;23.314;2022-09-23T03:12:46;95329.13;;;10.44;63.88
70127;BME280;57491;42.694;23.314;2022-09-23T03:15:21;95332.88;;;10.42;64.70
70127;BME280;57491;42.694;23.314;2022-09-23T03:17:56;95334.13;;;10.46;64.18
70127;BME280;57491;42.694;23.314;2022-09-23T03:20:34;95332.88;;;10.42;64.73
70127;BME280;57491;42.694;23.314;2022-09-23T03:23:05;95325.06;;;10.42;64.50
70127;BME280;57491;42.694;23.314;2022-09-23T03:25:36;95329.34;;;10.35;64.44
70127;BME280;57491;42.694;23.314;2022-09-23T03:28:05;95332.16;;;10.25;64.50
70127;BME280;57491;42.694;23.314;2022-09-23T03:30:34;95313.19;;;10.16;65.43
70127;BME280;57491;42.694;23.314;2022-09-23T03:33:03;95293.06;;;10.10;65.00
70127;BME280;57491;42.694;23.314;2022-09-23T03:35:34;95317.47;;;10.32;65.13
70127;BME280;57491;42.694;23.314;2022-09-23T03:38:25;95323.63;;;10.39;65.58
70127;BME280;57491;42.694;23.314;2022-09-23T03:40:58;95328.00;;;10.39;63.93
70127;BME280;57491;42.694;23.314;2022-09-23T03:43:27;95327.41;;;10.28;63.73
70127;BME280;57491;42.694;23.314;2022-09-23T03:45:55;95325.63;;;10.29;66.43
70127;BME280;57491;42.694;23.314;2022-09-23T03:48:24;95317.06;;;10.20;64.87
70127;BME280;57491;42.694;23.314;2022-09-23T03:50:52;95328.44;;;10.19;64.67
70127;BME280;57491;42.694;23.314;2022-09-23T03:53:19;95334.91;;;10.23;65.32
70127;BME280;57491;42.694;23.314;2022-09-23T03:55:46;95309.97;;;10.06;64.44
70127;BME280;57491;42.694;23.314;2022-09-23T03:58:14;95347.25;;;10.13;64.57
70127;BME280;57491;42.694;23.314;2022-09-23T04:00:42;95336.13;;;9.97;65.17
70127;BME280;57491;42.694;23.314;2022-09-23T04:03:09;95345.25;;;9.93;64.97
70127;BME280;57491;42.694;23.314;2022-09-23T04:05:36;95349.81;;;9.82;65.56
70127;BME280;57491;42.694;23.314;2022-09-23T04:08:07;95342.09;;;9.66;65.58
70127;BME280;57491;42.694;23.314;2022-09-23T04:10:34;95330.53;;;9.69;67.29
70127;BME280;57491;42.694;23.314;2022-09-23T04:13:01;95345.44;;;9.83;66.04
70127;BME280;57491;42.694;23.314;2022-09-23T04:15:29;95346.91;;;9.77;65.89
70127;BME280;57491;42.694;23.314;2022-09-23T04:17:56;95334.81;;;9.62;66.24
70127;BME280;57491;42.694;23.314;2022-09-23T04:20:23;95354.59;;;9.55;66.85
70127;BME280;57491;42.694;23.314;2022-09-23T04:22:55;95360.63;;;9.39;67.75
70127;BME280;57491;42.694;23.314;2022-09-23T04:25:23;95353.03;;;9.29;68.28
70127;BME280;57491;42.694;23.314;2022-09-23T04:27:50;95355.63;;;9.21;69.05
70127;BME280;57491;42.694;23.314;2022-09-23T04:30:17;95358.38;;;9.28;70.05
70127;BME280;57491;42.694;23.314;2022-09-23T04:32:44;95354.50;;;9.32;69.26
70127;BME280;57491;42.694;23.314;2022-09-23T04:35:11;95365.97;;;9.37;69.39
70127;BME280;57491;42.694;23.314;2022-09-23T04:37:38;95370.06;;;9.32;69.44
70127;BME280;57491;42.694;23.314;2022-09-23T04:40:06;95367.63;;;9.30;70.28
70127;BME280;57491;42.694;23.314;2022-09-23T04:42:36;95320.28;;;8.96;70.08
70127;BME280;57491;42.694;23.314;2022-09-23T04:45:03;95371.53;;;9.26;69.33
70127;BME280;57491;42.694;23.314;2022-09-23T04:47:31;95374.91;;;9.35;70.72
70127;BME280;57491;42.694;23.314;2022-09-23T04:49:58;95336.50;;;9.14;68.54
70127;BME280;57491;42.694;23.314;2022-09-23T04:52:25;95385.28;;;9.43;68.93
70127;BME280;57491;42.694;23.314;2022-09-23T04:54:52;95386.75;;;9.37;69.42
70127;BME280;57491;42.694;23.314;2022-09-23T04:57:19;95382.22;;;9.39;69.08
70127;BME280;57491;42.694;23.314;2022-09-23T04:59:48;95380.25;;;9.41;68.54
70127;BME280;57491;42.694;23.314;2022-09-23T05:02:15;95390.63;;;9.41;68.12
70127;BME280;57491;42.694;23.314;2022-09-23T05:04:42;95381.22;;;9.32;68.79
70127;BME280;57491;42.694;23.314;2022-09-23T05:07:09;95379.28;;;9.43;67.63
70127;BME280;57491;42.694;23.314;2022-09-23T05:09:36;95395.47;;;9.61;66.98
70127;BME280;57491;42.694;23.314;2022-09-23T05:12:04;95396.13;;;9.63;66.82
70127;BME280;57491;42.694;23.314;2022-09-23T05:14:31;95391.38;;;9.74;66.64
70127;BME280;57491;42.694;23.314;2022-09-23T05:17:00;95389.44;;;9.84;66.89
70127;BME280;57491;42.694;23.314;2022-09-23T05:19:27;95394.75;;;9.91;66.64
70127;BME280;57491;42.694;23.314;2022-09-23T05:21:54;95392.00;;;9.93;65.43
70127;BME280;57491;42.694;23.314;2022-09-23T05:24:21;95396.03;;;10.03;66.25
70127;BME280;57491;42.694;23.314;2022-09-23T05:26:50;95403.16;;;10.17;64.88
70127;BME280;57491;42.694;23.314;2022-09-23T05:29:18;95395.66;;;10.22;65.67
70127;BME280;57491;42.694;23.314;2022-09-23T05:31:45;95405.38;;;10.28;64.69
70127;BME280;57491;42.694;23.314;2022-09-23T05:34:15;95400.53;;;10.25;64.90
70127;BME280;57491;42.694;23.314;2022-09-23T05:36:43;95413.63;;;10.32;64.59
70127;BME280;57491;42.694;23.314;2022-09-23T05:39:10;95412.47;;;10.43;64.03
70127;BME280;57491;42.694;23.314;2022-09-23T05:41:37;95406.88;;;10.54;63.42
70127;BME280;57491;42.694;23.314;2022-09-23T05:44:06;95387.38;;;10.58;63.58
70127;BME280;57491;42.694;23.314;2022-09-23T05:46:33;95400.94;;;10.76;62.62
70127;BME280;57491;42.694;23.314;2022-09-23T05:49:01;95379.75;;;10.79;62.60
70127;BME280;57491;42.694;23.314;2022-09-23T05:51:32;95401.34;;;11.10;62.33
70127;BME280;57491;42.694;23.314;2022-09-23T05:54:00;95392.13;;;11.23;61.20
70127;BME280;57491;42.694;23.314;2022-09-23T05:56:31;95397.75;;;11.34;60.19
70127;BME280;57491;42.694;23.314;2022-09-23T05:58:59;95385.78;;;11.25;60.20
70127;BME280;57491;42.694;23.314;2022-09-23T06:01:28;95403.03;;;11.41;60.24
70127;BME280;57491;42.694;23.314;2022-09-23T06:03:57;95396.22;;;11.40;59.50
70127;BME280;57491;42.694;23.314;2022-09-23T06:06:27;95389.94;;;11.49;59.50
70127;BME280;57491;42.694;23.314;2022-09-23T06:08:56;95393.75;;;11.61;59.26
70127;BME280;57491;42.694;23.314;2022-09-23T06:11:25;95390.41;;;11.75;58.70
70127;BME280;57491;42.694;23.314;2022-09-23T06:13:53;95394.44;;;11.92;59.74
70127;BME280;57491;42.694;23.314;2022-09-23T06:16:21;95389.25;;;11.92;57.76
70127;BME280;57491;42.694;23.314;2022-09-23T06:18:48;95384.28;;;12.12;57.13
70127;BME280;57491;42.694;23.314;2022-09-23T06:21:16;95384.66;;;12.24;57.26
70127;BME280;57491;42.694;23.314;2022-09-23T06:23:43;95401.97;;;12.61;55.86
70127;BME280;57491;42.694;23.314;2022-09-23T06:26:15;95397.19;;;12.85;55.36
70127;BME280;57491;42.694;23.314;2022-09-23T06:28:44;95387.81;;;13.27;54.98
70127;BME280;57491;42.694;23.314;2022-09-23T06:31:12;95385.78;;;13.50;55.04
70127;BME280;57491;42.694;23.314;2022-09-23T06:33:40;95394.88;;;13.54;52.91
70127;BME280;57491;42.694;23.314;2022-09-23T06:36:08;95395.81;;;13.25;54.00
70127;BME280;57491;42.694;23.314;2022-09-23T06:38:37;95393.53;;;13.37;54.11
70127;BME280;57491;42.694;23.314;2022-09-23T06:41:04;95367.81;;;13.19;53.49
70127;BME280;57491;42.694;23.314;2022-09-23T06:43:33;95391.81;;;13.29;53.08
70127;BME280;57491;42.694;23.314;2022-09-23T06:46:02;95404.19;;;13.42;52.79
70127;BME280;57491;42.694;23.314;2022-09-23T06:48:30;95391.69;;;13.37;52.83
70127;BME280;57491;42.694;23.314;2022-09-23T06:51:00;95399.09;;;13.34;53.35
70127;BME280;57491;42.694;23.314;2022-09-23T06:53:29;95399.75;;;13.15;54.03
70127;BME280;57491;42.694;23.314;2022-09-23T06:55:57;95405.25;;;13.05;53.49
70127;BME280;57491;42.694;23.314;2022-09-23T06:58:26;95397.88;;;13.30;53.95
70127;BME280;57491;42.694;23.314;2022-09-23T07:00:59;95412.13;;;13.76;52.93
70127;BME280;57491;42.694;23.314;2022-09-23T07:03:27;95417.56;;;14.09;52.76
70127;BME280;57491;42.694;23.314;2022-09-23T07:05:54;95405.28;;;14.38;51.60
70127;BME280;57491;42.694;23.314;2022-09-23T07:08:21;95418.06;;;14.60;50.30
70127;BME280;57491;42.694;23.314;2022-09-23T07:10:52;95416.78;;;14.43;49.84
70127;BME280;57491;42.694;23.314;2022-09-23T07:13:20;95415.25;;;14.62;50.37
70127;BME280;57491;42.694;23.314;2022-09-23T07:15:50;95420.16;;;14.91;49.58
70127;BME280;57491;42.694;23.314;2022-09-23T07:18:20;95418.72;;;14.82;48.48
70127;BME280;57491;42.694;23.314;2022-09-23T07:20:48;95410.31;;;14.93;49.01
70127;BME280;57491;42.694;23.314;2022-09-23T07:23:15;95416.66;;;15.25;48.28
70127;BME280;57491;42.694;23.314;2022-09-23T07:25:43;95396.81;;;14.90;48.01
70127;BME280;57491;42.694;23.314;2022-09-23T07:28:11;95406.22;;;14.71;49.14
70127;BME280;57491;42.694;23.314;2022-09-23T07:30:39;95421.25;;;15.03;48.48
70127;BME280;57491;42.694;23.314;2022-09-23T07:33:06;95400.50;;;15.15;48.63
70127;BME280;57491;42.694;23.314;2022-09-23T07:35:38;95415.88;;;15.51;46.66
70127;BME280;57491;42.694;23.314;2022-09-23T07:38:05;95431.63;;;15.64;47.21
70127;BME280;57491;42.694;23.314;2022-09-23T07:40:32;95427.38;;;15.83;47.60
70127;BME280;57491;42.694;23.314;2022-09-23T07:43:00;95436.25;;;15.69;46.61
70127;BME280;57491;42.694;23.314;2022-09-23T07:45:29;95426.16;;;15.72;46.94
70127;BME280;57491;42.694;23.314;2022-09-23T07:47:58;95429.19;;;15.82;46.34
70127;BME280;57491;42.694;23.314;2022-09-23T07:50:26;95428.41;;;15.88;47.18
70127;BME280;57491;42.694;23.314;2022-09-23T07:52:59;95424.28;;;16.32;44.96
70127;BME280;57491;42.694;23.314;2022-09-23T07:55:27;95434.75;;;16.65;44.91
70127;BME280;57491;42.694;23.314;2022-09-23T07:57:54;95421.00;;;16.69;44.06
70127;BME280;57491;42.694;23.314;2022-09-23T08:00:21;95428.06;;;17.07;43.90
70127;BME280;57491;42.694;23.314;2022-09-23T08:02:48;95430.69;;;16.69;43.94
70127;BME280;57491;42.694;23.314;2022-09-23T08:05:16;95429.69;;;16.57;45.06
70127;BME280;57491;42.694;23.314;2022-09-23T08:07:43;95421.88;;;16.94;44.08
70127;BME280;57491;42.694;23.314;2022-09-23T08:10:12;95430.84;;;17.18;43.10
70127;BME280;57491;42.694;23.314;2022-09-23T08:12:43;95433.56;;;17.36;42.66
70127;BME280;57491;42.694;23.314;2022-09-23T08:15:11;95423.91;;;17.30;42.91
70127;BME280;57491;42.694;23.314;2022-09-23T08:17:38;95423.63;;;17.38;42.61
70127;BME280;57491;42.694;23.314;2022-09-23T08:20:06;95433.00;;;17.66;41.45
70127;BME280;57491;42.694;23.314;2022-09-23T08:22:53;95428.41;;;17.86;41.06
70127;BME280;57491;42.694;23.314;2022-09-23T08:25:25;95427.91;;;17.96;40.20
70127;BME280;57491;42.694;23.314;2022-09-23T08:27:52;95421.94;;;18.68;39.80
70127;BME280;57491;42.694;23.314;2022-09-23T08:30:19;95418.84;;;18.89;38.50
70127;BME280;57491;42.694;23.314;2022-09-23T08:32:49;95421.97;;;18.98;37.98
70127;BME280;57491;42.694;23.314;2022-09-23T08:35:16;95417.84;;;19.32;37.22
70127;BME280;57491;42.694;23.314;2022-09-23T08:37:45;95417.72;;;19.45;37.33
70127;BME280;57491;42.694;23.314;2022-09-23T08:40:12;95417.97;;;19.55;37.51
70127;BME280;57491;42.694;23.314;2022-09-23T08:42:43;95402.97;;;19.67;36.04
70127;BME280;57491;42.694;23.314;2022-09-23T08:45:16;95413.22;;;20.10;36.98
70127;BME280;57491;42.694;23.314;2022-09-23T08:47:48;95416.19;;;20.60;35.60
70127;BME280;57491;42.694;23.314;2022-09-23T08:50:19;95412.63;;;20.66;34.29
70127;BME280;57491;42.694;23.314;2022-09-23T08:52:50;95409.22;;;20.42;34.42
70127;BME280;57491;42.694;23.314;2022-09-23T08:55:22;95406.56;;;19.84;35.56
70127;BME280;57491;42.694;23.314;2022-09-23T08:58:05;95411.06;;;20.07;36.44
70127;BME280;57491;42.694;23.314;2022-09-23T09:00:39;95409.63;;;20.74;34.77
70127;BME280;57491;42.694;23.314;2022-09-23T09:03:18;95407.47;;;20.71;34.43
70127;BME280;57491;42.694;23.314;2022-09-23T09:05:48;95398.19;;;20.97;33.30
70127;BME280;57491;42.694;23.314;2022-09-23T09:08:21;95401.81;;;20.79;33.68
70127;BME280;57491;42.694;23.314;2022-09-23T09:10:53;95385.25;;;20.84;33.29
70127;BME280;57491;42.694;23.314;2022-09-23T09:13:29;95400.50;;;20.93;32.86
70127;BME280;57491;42.694;23.314;2022-09-23T09:16:18;95405.22;;;21.48;33.42
70127;BME280;57491;42.694;23.314;2022-09-23T09:18:53;95405.50;;;22.13;31.72
70127;BME280;57491;42.694;23.314;2022-09-23T09:21:24;95405.72;;;22.67;31.61
70127;BME280;57491;42.694;23.314;2022-09-23T09:23:55;95411.13;;;22.17;31.10
70127;BME280;57491;42.694;23.314;2022-09-23T09:26:25;95405.53;;;21.97;32.05
70127;BME280;57491;42.694;23.314;2022-09-23T09:28:57;95405.03;;;22.16;31.31
70127;BME280;57491;42.694;23.314;2022-09-23T09:31:31;95403.72;;;22.36;30.56
70127;BME280;57491;42.694;23.314;2022-09-23T09:34:02;95386.38;;;22.66;30.95
70127;BME280;57491;42.694;23.314;2022-09-23T09:36:36;95407.91;;;23.13;30.03
70127;BME280;57491;42.694;23.314;2022-09-23T09:39:04;95401.97;;;22.63;29.01
70127;BME280;57491;42.694;23.314;2022-09-23T09:41:32;95388.81;;;21.63;30.40
70127;BME280;57491;42.694;23.314;2022-09-23T09:44:13;95399.78;;;21.71;30.93
70127;BME280;57491;42.694;23.314;2022-09-23T09:47:06;95397.47;;;22.25;30.50
70127;BME280;57491;42.694;23.314;2022-09-23T09:49:40;95410.94;;;22.40;29.71
70127;BME280;57491;42.694;23.314;2022-09-23T09:52:19;95387.66;;;22.42;29.80
70127;BME280;57491;42.694;23.314;2022-09-23T09:54:47;95401.41;;;22.61;28.58
70127;BME280;57491;42.694;23.314;2022-09-23T09:57:26;95403.44;;;22.54;29.31
70127;BME280;57491;42.694;23.314;2022-09-23T10:00:16;95406.41;;;23.23;27.61
70127;BME280;57491;42.694;23.314;2022-09-23T10:02:44;95391.81;;;23.47;28.07
70127;BME280;57491;42.694;23.314;2022-09-23T10:05:24;95393.78;;;24.25;26.19
70127;BME280;57491;42.694;23.314;2022-09-23T10:07:52;95394.34;;;24.32;27.12
70127;BME280;57491;42.694;23.314;2022-09-23T10:10:19;95390.81;;;24.64;26.46
70127;BME280;57491;42.694;23.314;2022-09-23T10:12:48;95384.13;;;25.18;25.75
70127;BME280;57491;42.694;23.314;2022-09-23T10:15:29;95386.91;;;25.94;24.02
70127;BME280;57491;42.694;23.314;2022-09-23T10:17:58;95378.41;;;27.02;22.31
70127;BME280;57491;42.694;23.314;2022-09-23T10:20:32;95388.50;;;27.98;22.04
70127;BME280;57491;42.694;23.314;2022-09-23T10:23:06;95373.44;;;28.65;20.43
70127;BME280;57491;42.694;23.314;2022-09-23T10:25:35;95379.88;;;28.40;20.57
70127;BME280;57491;42.694;23.314;2022-09-23T10:31:15;95369.34;;;25.83;23.91
70127;BME280;57491;42.694;23.314;2022-09-23T10:33:51;95370.66;;;26.16;24.03
70127;BME280;57491;42.694;23.314;2022-09-23T10:36:20;95367.94;;;26.41;23.41
70127;BME280;57491;42.694;23.314;2022-09-23T10:38:47;95367.88;;;27.26;21.85
70127;BME280;57491;42.694;23.314;2022-09-23T10:41:26;95377.88;;;27.05;21.39
70127;BME280;57491;42.694;23.314;2022-09-23T10:44:28;95361.44;;;26.73;22.15
70127;BME280;57491;42.694;23.314;2022-09-23T10:47:23;95369.38;;;26.98;21.55
70127;BME280;57491;42.694;23.314;2022-09-23T10:50:09;95366.91;;;26.37;21.97
70127;BME280;57491;42.694;23.314;2022-09-23T10:52:56;95366.00;;;26.62;22.00
70127;BME280;57491;42.694;23.314;2022-09-23T10:55:37;95346.31;;;26.53;21.56
70127;BME280;57491;42.694;23.314;2022-09-23T10:58:44;95343.84;;;27.31;22.08
70127;BME280;57491;42.694;23.314;2022-09-23T11:01:28;95348.03;;;27.42;19.94
70127;BME280;57491;42.694;23.314;2022-09-23T11:04:13;95353.66;;;26.96;19.88
70127;BME280;57491;42.694;23.314;2022-09-23T11:09:47;95342.72;;;28.10;19.43
70127;BME280;57491;42.694;23.314;2022-09-23T11:12:26;95339.91;;;28.49;17.24
70127;BME280;57491;42.694;23.314;2022-09-23T11:15:16;95323.97;;;29.05;17.00
70127;BME280;57491;42.694;23.314;2022-09-23T11:21:06;95328.97;;;31.14;16.86
70127;BME280;57491;42.694;23.314;2022-09-23T11:23:52;95326.13;;;31.91;15.42
70127;BME280;57491;42.694;23.314;2022-09-23T11:26:34;95320.00;;;31.19;15.41
70127;BME280;57491;42.694;23.314;2022-09-23T11:29:17;95286.31;;;30.31;17.87
70127;BME280;57491;42.694;23.314;2022-09-23T11:31:52;95314.31;;;29.79;16.78
70127;BME280;57491;42.694;23.314;2022-09-23T11:34:42;95317.88;;;30.52;16.79
70127;BME280;57491;42.694;23.314;2022-09-23T11:37:19;95315.28;;;30.75;15.78
70127;BME280;57491;42.694;23.314;2022-09-23T11:39:50;95318.63;;;31.08;16.29
70127;BME280;57491;42.694;23.314;2022-09-23T11:42:24;95310.06;;;32.30;15.06
70127;BME280;57491;42.694;23.314;2022-09-23T11:44:56;95298.91;;;32.54;15.08
70127;BME280;57491;42.694;23.314;2022-09-23T11:47:27;95303.34;;;33.07;14.27
70127;BME280;57491;42.694;23.314;2022-09-23T11:49:58;95293.38;;;33.25;14.19
70127;BME280;57491;42.694;23.314;2022-09-23T11:52:32;95293.72;;;33.32;14.98
70127;BME280;57491;42.694;23.314;2022-09-23T11:55:05;95291.75;;;33.06;13.71
70127;BME280;57491;42.694;23.314;2022-09-23T11:57:44;95297.03;;;33.29;13.98
70127;BME280;57491;42.694;23.314;2022-09-23T12:00:15;95301.91;;;34.50;13.30
70127;BME280;57491;42.694;23.314;2022-09-23T12:02:53;95281.88;;;34.22;13.06
70127;BME280;57491;42.694;23.314;2022-09-23T12:05:30;95284.38;;;34.94;12.68
70127;BME280;57491;42.694;23.314;2022-09-23T12:08:05;95302.31;;;35.70;12.73
70127;BME280;57491;42.694;23.314;2022-09-23T12:10:42;95297.69;;;35.29;13.76
70127;BME280;57491;42.694;23.314;2022-09-23T12:13:14;95309.34;;;35.62;14.59
70127;BME280;57491;42.694;23.314;2022-09-23T12:15:57;95299.09;;;33.83;15.41
70127;BME280;57491;42.694;23.314;2022-09-23T12:18:37;95305.88;;;31.13;18.03
70127;BME280;57491;42.694;23.314;2022-09-23T12:21:30;95303.44;;;28.81;20.04
70127;BME280;57491;42.694;23.314;2022-09-23T12:24:16;95309.97;;;27.26;20.83
70127;BME280;57491;42.694;23.314;2022-09-23T12:26:51;95302.66;;;26.34;22.51
70127;BME280;57491;42.694;23.314;2022-09-23T12:29:19;95289.44;;;25.88;22.74
70127;BME280;57491;42.694;23.314;2022-09-23T12:31:46;95297.41;;;25.12;23.76
70127;BME280;57491;42.694;23.314;2022-09-23T12:34:21;95290.88;;;26.45;22.25
70127;BME280;57491;42.694;23.314;2022-09-23T12:36:50;95270.53;;;27.13;22.14
70127;BME280;57491;42.694;23.314;2022-09-23T12:39:24;95278.91;;;29.49;19.59
70127;BME280;57491;42.694;23.314;2022-09-23T12:41:56;95281.47;;;30.74;18.52
70127;BME280;57491;42.694;23.314;2022-09-23T12:44:32;95290.06;;;30.48;18.60
70127;BME280;57491;42.694;23.314;2022-09-23T12:47:30;95292.25;;;31.45;17.43
70127;BME280;57491;42.694;23.314;2022-09-23T12:50:45;95290.19;;;32.49;16.51
70127;BME280;57491;42.694;23.314;2022-09-23T12:56:20;95299.50;;;29.35;19.56
70127;BME280;57491;42.694;23.314;2022-09-23T12:59:14;95298.41;;;27.36;21.02
70127;BME280;57491;42.694;23.314;2022-09-23T13:01:46;95288.31;;;26.09;22.44
70127;BME280;57491;42.694;23.314;2022-09-23T13:04:33;95292.38;;;25.61;24.13
70127;BME280;57491;42.694;23.314;2022-09-23T13:07:26;95283.78;;;25.04;24.96
70127;BME280;57491;42.694;23.314;2022-09-23T13:10:04;95275.91;;;24.47;25.10
70127;BME280;57491;42.694;23.314;2022-09-23T13:12:35;95265.25;;;23.89;24.93
70127;BME280;57491;42.694;23.314;2022-09-23T13:15:14;95289.13;;;23.47;26.77
70127;BME280;57491;42.694;23.314;2022-09-23T13:17:42;95272.59;;;22.82;28.17
70127;BME280;57491;42.694;23.314;2022-09-23T13:20:31;95283.81;;;22.67;27.42
70127;BME280;57491;42.694;23.314;2022-09-23T13:23:20;95284.66;;;22.07;28.66
70127;BME280;57491;42.694;23.314;2022-09-23T13:25:48;95275.75;;;21.42;29.10
70127;BME280;57491;42.694;23.314;2022-09-23T13:28:26;95286.13;;;21.43;29.57
70127;BME280;57491;42.694;23.314;2022-09-23T13:30:54;95267.97;;;21.18;29.92
70127;BME280;57491;42.694;23.314;2022-09-23T13:33:28;95282.81;;;21.19;30.48
70127;BME280;57491;42.694;23.314;2022-09-23T13:35:59;95274.50;;;20.99;30.28